sensor_id;sensor_type;location;lat;lon;timestamp;temperature;humidity
74101;DHT22;62462;52.530;21.682;2023-02-01T00:01:13;3.90;88.70
74101;DHT22;62462;52.530;21.682;2023-02-01T00:03:38;3.90;88.40
74101;DHT22;62462;52.530;21.682;2023-02-01T00:06:04;4.00;88.20
74101;DHT22;62462;52.530;21.682;2023-02-01T00:08:30;4.00;88.10
74101;DHT22;62462;52.530;21.682;2023-02-01T00:11:08;4.00;88.10
74101;DHT22;62462;52.530;21.682;2023-02-01T00:13:36;4.00;88.40
74101;DHT22;62462;52.530;21.682;2023-02-01T00:18:32;4.00;88.80
74101;DHT22;62462;52.530;21.682;2023-02-01T00:20:58;4.00;88.90
74101;DHT22;62462;52.530;21.682;2023-02-01T00:23:24;4.00;89.10
74101;DHT22;62462;52.530;21.682;2023-02-01T00:25:50;4.00;89.60
74101;DHT22;62462;52.530;21.682;2023-02-01T00:28:16;4.00;90.00
74101;DHT22;62462;52.530;21.682;2023-02-01T00:30:41;4.00;89.90
74101;DHT22;62462;52.530;21.682;2023-02-01T00:33:07;4.10;89.90
74101;DHT22;62462;52.530;21.682;2023-02-01T00:35:36;4.10;90.00
74101;DHT22;62462;52.530;21.682;2023-02-01T00:38:02;4.10;90.20
74101;DHT22;62462;52.530;21.682;2023-02-01T00:40:28;4.10;90.40
74101;DHT22;62462;52.530;21.682;2023-02-01T00:42:53;4.10;90.50
74101;DHT22;62462;52.530;21.682;2023-02-01T00:45:19;4.10;90.70
74101;DHT22;62462;52.530;21.682;2023-02-01T00:47:45;4.20;90.70
74101;DHT22;62462;52.530;21.682;2023-02-01T00:50:11;4.20;90.80
74101;DHT22;62462;52.530;21.682;2023-02-01T00:52:37;4.20;90.90
74101;DHT22;62462;52.530;21.682;2023-02-01T00:55:02;4.10;91.30
74101;DHT22;62462;52.530;21.682;2023-02-01T00:57:28;4.20;91.30
74101;DHT22;62462;52.530;21.682;2023-02-01T00:59:54;4.20;91.30
74101;DHT22;62462;52.530;21.682;2023-02-01T01:02:20;4.20;91.30
74101;DHT22;62462;52.530;21.682;2023-02-01T01:04:45;4.30;91.20
74101;DHT22;62462;52.530;21.682;2023-02-01T01:07:11;4.30;91.20
74101;DHT22;62462;52.530;21.682;2023-02-01T01:09:37;4.30;91.20
74101;DHT22;62462;52.530;21.682;2023-02-01T01:12:02;4.40;90.90
74101;DHT22;62462;52.530;21.682;2023-02-01T01:14:29;4.50;90.60
74101;DHT22;62462;52.530;21.682;2023-02-01T01:16:55;4.60;90.20
74101;DHT22;62462;52.530;21.682;2023-02-01T01:19:21;4.60;90.00
74101;DHT22;62462;52.530;21.682;2023-02-01T01:21:47;4.70;89.70
74101;DHT22;62462;52.530;21.682;2023-02-01T01:24:12;4.80;89.30
74101;DHT22;62462;52.530;21.682;2023-02-01T01:26:38;4.80;89.10
74101;DHT22;62462;52.530;21.682;2023-02-01T01:29:04;4.80;88.70
74101;DHT22;62462;52.530;21.682;2023-02-01T01:31:30;4.80;88.60
74101;DHT22;62462;52.530;21.682;2023-02-01T01:33:58;4.80;89.10
74101;DHT22;62462;52.530;21.682;2023-02-01T01:36:25;4.80;87.90
74101;DHT22;62462;52.530;21.682;2023-02-01T01:38:51;4.80;87.50
74101;DHT22;62462;52.530;21.682;2023-02-01T01:41:20;4.90;87.10
74101;DHT22;62462;52.530;21.682;2023-02-01T01:43:51;4.90;86.90
74101;DHT22;62462;52.530;21.682;2023-02-01T01:46:23;4.90;86.70
74101;DHT22;62462;52.530;21.682;2023-02-01T01:49:12;4.90;86.70
74101;DHT22;62462;52.530;21.682;2023-02-01T01:51:47;4.90;86.10
74101;DHT22;62462;52.530;21.682;2023-02-01T01:54:20;4.90;86.50
74101;DHT22;62462;52.530;21.682;2023-02-01T01:57:12;5.00;86.40
74101;DHT22;62462;52.530;21.682;2023-02-01T01:59:41;4.90;86.30
74101;DHT22;62462;52.530;21.682;2023-02-01T02:02:09;4.90;86.50
74101;DHT22;62462;52.530;21.682;2023-02-01T02:04:35;4.90;86.70
74101;DHT22;62462;52.530;21.682;2023-02-01T02:07:11;4.80;86.80
74101;DHT22;62462;52.530;21.682;2023-02-01T02:09:37;4.80;86.80
74101;DHT22;62462;52.530;21.682;2023-02-01T02:12:03;4.80;86.10
74101;DHT22;62462;52.530;21.682;2023-02-01T02:14:29;4.80;85.90
74101;DHT22;62462;52.530;21.682;2023-02-01T02:20:22;4.80;85.70
74101;DHT22;62462;52.530;21.682;2023-02-01T02:32:21;4.80;85.50
74101;DHT22;62462;52.530;21.682;2023-02-01T02:40:40;4.60;86.40
74101;DHT22;62462;52.530;21.682;2023-02-01T02:43:23;4.50;86.60
74101;DHT22;62462;52.530;21.682;2023-02-01T02:49:23;4.40;87.00
74101;DHT22;62462;52.530;21.682;2023-02-01T02:51:56;4.40;87.00
74101;DHT22;62462;52.530;21.682;2023-02-01T02:54:46;4.40;86.90
74101;DHT22;62462;52.530;21.682;2023-02-01T02:57:26;4.50;86.70
74101;DHT22;62462;52.530;21.682;2023-02-01T03:00:14;4.50;86.50
74101;DHT22;62462;52.530;21.682;2023-02-01T03:03:00;4.50;86.20
74101;DHT22;62462;52.530;21.682;2023-02-01T03:05:47;4.50;85.90
74101;DHT22;62462;52.530;21.682;2023-02-01T03:08:16;4.50;86.00
74101;DHT22;62462;52.530;21.682;2023-02-01T03:10:58;4.50;85.80
74101;DHT22;62462;52.530;21.682;2023-02-01T03:13:57;4.50;85.70
74101;DHT22;62462;52.530;21.682;2023-02-01T03:16:32;4.50;85.30
74101;DHT22;62462;52.530;21.682;2023-02-01T03:24:11;4.50;85.40
74101;DHT22;62462;52.530;21.682;2023-02-01T03:26:42;4.40;85.20
74101;DHT22;62462;52.530;21.682;2023-02-01T03:29:14;4.40;85.00
74101;DHT22;62462;52.530;21.682;2023-02-01T03:31:43;4.50;85.00
74101;DHT22;62462;52.530;21.682;2023-02-01T03:34:11;4.50;84.80
74101;DHT22;62462;52.530;21.682;2023-02-01T03:36:49;4.50;84.20
74101;DHT22;62462;52.530;21.682;2023-02-01T03:42:03;4.50;84.20
74101;DHT22;62462;52.530;21.682;2023-02-01T03:44:34;4.40;84.30
74101;DHT22;62462;52.530;21.682;2023-02-01T03:47:17;4.40;84.70
74101;DHT22;62462;52.530;21.682;2023-02-01T03:50:06;4.40;84.70
74101;DHT22;62462;52.530;21.682;2023-02-01T03:52:42;4.40;84.90
74101;DHT22;62462;52.530;21.682;2023-02-01T03:55:12;4.40;85.00
74101;DHT22;62462;52.530;21.682;2023-02-01T03:57:43;4.40;84.90
74101;DHT22;62462;52.530;21.682;2023-02-01T04:00:19;4.40;84.70
74101;DHT22;62462;52.530;21.682;2023-02-01T04:02:47;4.40;84.50
74101;DHT22;62462;52.530;21.682;2023-02-01T04:05:13;4.40;84.70
74101;DHT22;62462;52.530;21.682;2023-02-01T04:07:38;4.30;84.60
74101;DHT22;62462;52.530;21.682;2023-02-01T04:10:05;4.40;85.10
74101;DHT22;62462;52.530;21.682;2023-02-01T04:12:31;4.40;84.90
74101;DHT22;62462;52.530;21.682;2023-02-01T04:14:58;4.30;84.90
74101;DHT22;62462;52.530;21.682;2023-02-01T04:17:24;4.30;85.00
74101;DHT22;62462;52.530;21.682;2023-02-01T04:19:50;4.40;85.00
74101;DHT22;62462;52.530;21.682;2023-02-01T04:22:19;4.40;84.30
74101;DHT22;62462;52.530;21.682;2023-02-01T04:24:44;4.50;84.30
74101;DHT22;62462;52.530;21.682;2023-02-01T04:27:10;4.50;84.20
74101;DHT22;62462;52.530;21.682;2023-02-01T04:29:36;4.40;84.20
74101;DHT22;62462;52.530;21.682;2023-02-01T04:32:01;4.40;84.70
74101;DHT22;62462;52.530;21.682;2023-02-01T04:34:27;4.40;84.40
74101;DHT22;62462;52.530;21.682;2023-02-01T04:36:53;4.40;84.70
74101;DHT22;62462;52.530;21.682;2023-02-01T04:39:18;4.50;84.60
74101;DHT22;62462;52.530;21.682;2023-02-01T04:41:44;4.50;84.20
74101;DHT22;62462;52.530;21.682;2023-02-01T04:44:15;4.50;84.50
74101;DHT22;62462;52.530;21.682;2023-02-01T04:46:41;4.50;84.40
74101;DHT22;62462;52.530;21.682;2023-02-01T04:49:08;4.40;84.90
74101;DHT22;62462;52.530;21.682;2023-02-01T04:51:34;4.40;85.20
74101;DHT22;62462;52.530;21.682;2023-02-01T04:54:00;4.30;85.90
74101;DHT22;62462;52.530;21.682;2023-02-01T04:56:26;4.30;86.20
74101;DHT22;62462;52.530;21.682;2023-02-01T04:58:53;4.30;86.60
74101;DHT22;62462;52.530;21.682;2023-02-01T05:01:19;4.30;87.00
74101;DHT22;62462;52.530;21.682;2023-02-01T05:03:45;4.20;87.20
74101;DHT22;62462;52.530;21.682;2023-02-01T05:06:10;4.30;87.30
74101;DHT22;62462;52.530;21.682;2023-02-01T05:08:37;4.30;87.10
74101;DHT22;62462;52.530;21.682;2023-02-01T05:11:03;4.30;86.90
74101;DHT22;62462;52.530;21.682;2023-02-01T05:13:29;4.30;86.90
74101;DHT22;62462;52.530;21.682;2023-02-01T05:16:14;4.40;87.60
74101;DHT22;62462;52.530;21.682;2023-02-01T05:18:39;4.30;86.20
74101;DHT22;62462;52.530;21.682;2023-02-01T05:21:05;4.30;86.50
74101;DHT22;62462;52.530;21.682;2023-02-01T05:23:31;4.30;86.30
74101;DHT22;62462;52.530;21.682;2023-02-01T05:26:00;4.30;86.50
74101;DHT22;62462;52.530;21.682;2023-02-01T05:28:27;4.30;86.20
74101;DHT22;62462;52.530;21.682;2023-02-01T05:30:54;4.40;85.90
74101;DHT22;62462;52.530;21.682;2023-02-01T05:33:20;4.40;85.10
74101;DHT22;62462;52.530;21.682;2023-02-01T05:35:46;4.50;85.10
74101;DHT22;62462;52.530;21.682;2023-02-01T05:38:11;4.50;84.90
74101;DHT22;62462;52.530;21.682;2023-02-01T05:40:37;4.60;84.50
74101;DHT22;62462;52.530;21.682;2023-02-01T05:43:03;4.50;83.50
74101;DHT22;62462;52.530;21.682;2023-02-01T05:51:48;4.50;82.80
74101;DHT22;62462;52.530;21.682;2023-02-01T05:54:14;4.50;82.30
74101;DHT22;62462;52.530;21.682;2023-02-01T05:56:40;4.50;82.40
74101;DHT22;62462;52.530;21.682;2023-02-01T05:59:06;4.60;82.20
74101;DHT22;62462;52.530;21.682;2023-02-01T06:01:32;4.70;81.70
74101;DHT22;62462;52.530;21.682;2023-02-01T06:03:59;4.70;81.50
74101;DHT22;62462;52.530;21.682;2023-02-01T06:06:25;4.80;80.60
74101;DHT22;62462;52.530;21.682;2023-02-01T06:08:52;4.80;80.40
74101;DHT22;62462;52.530;21.682;2023-02-01T06:11:17;4.80;80.50
74101;DHT22;62462;52.530;21.682;2023-02-01T06:13:43;4.70;80.50
74101;DHT22;62462;52.530;21.682;2023-02-01T06:16:09;4.70;80.30
74101;DHT22;62462;52.530;21.682;2023-02-01T06:18:35;4.80;80.20
74101;DHT22;62462;52.530;21.682;2023-02-01T06:21:01;4.80;79.90
74101;DHT22;62462;52.530;21.682;2023-02-01T06:23:28;4.80;79.70
74101;DHT22;62462;52.530;21.682;2023-02-01T06:26:03;4.80;79.60
74101;DHT22;62462;52.530;21.682;2023-02-01T06:28:30;4.70;79.20
74101;DHT22;62462;52.530;21.682;2023-02-01T06:30:56;4.70;79.10
74101;DHT22;62462;52.530;21.682;2023-02-01T06:33:24;4.80;80.10
74101;DHT22;62462;52.530;21.682;2023-02-01T06:35:57;4.70;80.70
74101;DHT22;62462;52.530;21.682;2023-02-01T06:38:22;4.60;80.90
74101;DHT22;62462;52.530;21.682;2023-02-01T06:40:56;4.60;80.70
74101;DHT22;62462;52.530;21.682;2023-02-01T06:43:22;4.60;80.80
74101;DHT22;62462;52.530;21.682;2023-02-01T06:45:49;4.60;80.30
74101;DHT22;62462;52.530;21.682;2023-02-01T06:48:15;4.60;80.20
74101;DHT22;62462;52.530;21.682;2023-02-01T06:50:41;4.70;80.20
74101;DHT22;62462;52.530;21.682;2023-02-01T06:53:06;4.80;80.00
74101;DHT22;62462;52.530;21.682;2023-02-01T06:55:32;4.80;79.70
74101;DHT22;62462;52.530;21.682;2023-02-01T06:57:58;4.90;79.00
74101;DHT22;62462;52.530;21.682;2023-02-01T07:00:24;4.90;79.00
74101;DHT22;62462;52.530;21.682;2023-02-01T07:02:50;4.90;78.70
74101;DHT22;62462;52.530;21.682;2023-02-01T07:05:16;4.90;78.00
74101;DHT22;62462;52.530;21.682;2023-02-01T07:07:42;4.90;78.10
74101;DHT22;62462;52.530;21.682;2023-02-01T07:10:09;4.90;78.40
74101;DHT22;62462;52.530;21.682;2023-02-01T07:12:35;5.00;78.20
74101;DHT22;62462;52.530;21.682;2023-02-01T07:15:03;5.00;77.50
74101;DHT22;62462;52.530;21.682;2023-02-01T07:17:29;5.00;78.20
74101;DHT22;62462;52.530;21.682;2023-02-01T07:19:55;4.90;77.40
74101;DHT22;62462;52.530;21.682;2023-02-01T07:22:22;4.90;78.30
74101;DHT22;62462;52.530;21.682;2023-02-01T07:24:47;4.90;78.30
74101;DHT22;62462;52.530;21.682;2023-02-01T07:27:13;4.90;78.30
74101;DHT22;62462;52.530;21.682;2023-02-01T07:29:39;5.00;78.20
74101;DHT22;62462;52.530;21.682;2023-02-01T07:32:04;5.10;78.10
74101;DHT22;62462;52.530;21.682;2023-02-01T07:34:33;5.10;78.30
74101;DHT22;62462;52.530;21.682;2023-02-01T07:37:00;5.00;77.90
74101;DHT22;62462;52.530;21.682;2023-02-01T07:39:27;5.00;78.20
74101;DHT22;62462;52.530;21.682;2023-02-01T07:41:54;4.90;79.00
74101;DHT22;62462;52.530;21.682;2023-02-01T07:44:20;5.00;79.10
74101;DHT22;62462;52.530;21.682;2023-02-01T07:46:49;5.00;79.10
74101;DHT22;62462;52.530;21.682;2023-02-01T07:49:15;5.10;79.10
74101;DHT22;62462;52.530;21.682;2023-02-01T07:51:42;5.20;79.00
74101;DHT22;62462;52.530;21.682;2023-02-01T07:54:08;5.20;78.70
74101;DHT22;62462;52.530;21.682;2023-02-01T07:56:34;5.20;78.60
74101;DHT22;62462;52.530;21.682;2023-02-01T07:59:00;5.20;78.40
74101;DHT22;62462;52.530;21.682;2023-02-01T08:01:27;5.00;79.70
74101;DHT22;62462;52.530;21.682;2023-02-01T08:03:55;5.00;80.40
74101;DHT22;62462;52.530;21.682;2023-02-01T08:06:22;5.00;80.20
74101;DHT22;62462;52.530;21.682;2023-02-01T08:08:50;5.00;80.50
74101;DHT22;62462;52.530;21.682;2023-02-01T08:11:17;5.00;79.80
74101;DHT22;62462;52.530;21.682;2023-02-01T08:13:46;5.00;79.80
74101;DHT22;62462;52.530;21.682;2023-02-01T08:16:13;5.00;80.10
74101;DHT22;62462;52.530;21.682;2023-02-01T08:18:39;5.00;79.90
74101;DHT22;62462;52.530;21.682;2023-02-01T08:21:07;5.00;79.90
74101;DHT22;62462;52.530;21.682;2023-02-01T08:23:34;5.00;80.40
74101;DHT22;62462;52.530;21.682;2023-02-01T08:26:18;5.00;80.50
74101;DHT22;62462;52.530;21.682;2023-02-01T08:28:46;5.00;80.30
74101;DHT22;62462;52.530;21.682;2023-02-01T08:31:14;5.00;80.40
74101;DHT22;62462;52.530;21.682;2023-02-01T08:33:41;5.00;80.40
74101;DHT22;62462;52.530;21.682;2023-02-01T08:36:08;5.00;80.70
74101;DHT22;62462;52.530;21.682;2023-02-01T08:38:38;4.90;80.70
74101;DHT22;62462;52.530;21.682;2023-02-01T08:41:19;4.80;81.50
74101;DHT22;62462;52.530;21.682;2023-02-01T08:43:46;4.90;81.60
74101;DHT22;62462;52.530;21.682;2023-02-01T08:46:14;4.90;81.40
74101;DHT22;62462;52.530;21.682;2023-02-01T08:48:40;4.90;81.60
74101;DHT22;62462;52.530;21.682;2023-02-01T08:51:11;4.90;80.70
74101;DHT22;62462;52.530;21.682;2023-02-01T08:53:38;4.90;80.90
74101;DHT22;62462;52.530;21.682;2023-02-01T08:56:05;5.00;81.00
74101;DHT22;62462;52.530;21.682;2023-02-01T08:58:32;5.10;80.60
74101;DHT22;62462;52.530;21.682;2023-02-01T09:01:03;5.10;80.60
74101;DHT22;62462;52.530;21.682;2023-02-01T09:03:29;5.10;80.60
74101;DHT22;62462;52.530;21.682;2023-02-01T09:06:06;5.10;80.30
74101;DHT22;62462;52.530;21.682;2023-02-01T09:08:33;5.10;80.40
74101;DHT22;62462;52.530;21.682;2023-02-01T09:11:04;5.00;80.80
74101;DHT22;62462;52.530;21.682;2023-02-01T09:13:31;5.00;80.90
74101;DHT22;62462;52.530;21.682;2023-02-01T09:15:57;5.10;80.90
74101;DHT22;62462;52.530;21.682;2023-02-01T09:18:25;5.10;80.70
74101;DHT22;62462;52.530;21.682;2023-02-01T09:20:51;5.20;80.80
74101;DHT22;62462;52.530;21.682;2023-02-01T09:23:23;5.10;81.90
74101;DHT22;62462;52.530;21.682;2023-02-01T09:25:48;5.10;81.30
74101;DHT22;62462;52.530;21.682;2023-02-01T09:28:18;5.00;82.00
74101;DHT22;62462;52.530;21.682;2023-02-01T09:30:44;4.90;83.40
74101;DHT22;62462;52.530;21.682;2023-02-01T09:33:11;4.90;83.60
74101;DHT22;62462;52.530;21.682;2023-02-01T09:35:36;4.80;84.40
74101;DHT22;62462;52.530;21.682;2023-02-01T09:38:03;4.90;84.70
74101;DHT22;62462;52.530;21.682;2023-02-01T09:40:29;4.90;85.10
74101;DHT22;62462;52.530;21.682;2023-02-01T09:43:29;4.90;85.20
74101;DHT22;62462;52.530;21.682;2023-02-01T09:48:33;4.90;85.40
74101;DHT22;62462;52.530;21.682;2023-02-01T09:51:03;5.00;85.40
74101;DHT22;62462;52.530;21.682;2023-02-01T09:53:43;5.00;84.50
74101;DHT22;62462;52.530;21.682;2023-02-01T09:56:15;5.10;84.50
74101;DHT22;62462;52.530;21.682;2023-02-01T10:01:28;5.10;84.00
74101;DHT22;62462;52.530;21.682;2023-02-01T10:04:24;5.20;83.30
74101;DHT22;62462;52.530;21.682;2023-02-01T10:09:54;5.20;82.60
74101;DHT22;62462;52.530;21.682;2023-02-01T10:20:50;5.30;82.00
74101;DHT22;62462;52.530;21.682;2023-02-01T10:26:01;5.30;81.40
74101;DHT22;62462;52.530;21.682;2023-02-01T10:28:33;5.40;81.60
74101;DHT22;62462;52.530;21.682;2023-02-01T10:31:00;5.50;80.70
74101;DHT22;62462;52.530;21.682;2023-02-01T10:33:33;5.50;80.60
74101;DHT22;62462;52.530;21.682;2023-02-01T10:36:21;5.70;80.00
74101;DHT22;62462;52.530;21.682;2023-02-01T10:38:48;5.90;80.00
74101;DHT22;62462;52.530;21.682;2023-02-01T10:41:16;5.90;78.00
74101;DHT22;62462;52.530;21.682;2023-02-01T10:43:44;5.80;78.30
74101;DHT22;62462;52.530;21.682;2023-02-01T10:46:10;5.80;78.60
74101;DHT22;62462;52.530;21.682;2023-02-01T10:48:37;5.80;79.10
74101;DHT22;62462;52.530;21.682;2023-02-01T10:51:11;5.80;77.80
74101;DHT22;62462;52.530;21.682;2023-02-01T10:53:54;5.80;77.40
74101;DHT22;62462;52.530;21.682;2023-02-01T10:56:25;5.80;76.70
74101;DHT22;62462;52.530;21.682;2023-02-01T10:59:03;5.90;76.40
74101;DHT22;62462;52.530;21.682;2023-02-01T11:01:36;6.00;76.10
74101;DHT22;62462;52.530;21.682;2023-02-01T11:04:09;6.00;75.50
74101;DHT22;62462;52.530;21.682;2023-02-01T11:06:37;6.00;75.00
74101;DHT22;62462;52.530;21.682;2023-02-01T11:09:11;6.00;74.30
74101;DHT22;62462;52.530;21.682;2023-02-01T11:14:20;6.00;75.30
74101;DHT22;62462;52.530;21.682;2023-02-01T11:17:27;6.00;75.40
74101;DHT22;62462;52.530;21.682;2023-02-01T11:19:57;6.00;75.40
74101;DHT22;62462;52.530;21.682;2023-02-01T11:22:26;6.10;75.50
74101;DHT22;62462;52.530;21.682;2023-02-01T11:24:53;6.00;74.00
74101;DHT22;62462;52.530;21.682;2023-02-01T11:27:22;6.00;74.10
74101;DHT22;62462;52.530;21.682;2023-02-01T11:29:54;6.00;75.00
74101;DHT22;62462;52.530;21.682;2023-02-01T11:32:23;6.10;75.00
74101;DHT22;62462;52.530;21.682;2023-02-01T11:34:55;6.10;74.20
74101;DHT22;62462;52.530;21.682;2023-02-01T11:37:33;6.30;74.30
74101;DHT22;62462;52.530;21.682;2023-02-01T11:40:03;6.10;74.20
74101;DHT22;62462;52.530;21.682;2023-02-01T11:45:32;6.10;74.30
74101;DHT22;62462;52.530;21.682;2023-02-01T11:48:08;6.30;73.70
74101;DHT22;62462;52.530;21.682;2023-02-01T11:50:44;6.40;73.00
74101;DHT22;62462;52.530;21.682;2023-02-01T12:17:51;6.10;72.20
74101;DHT22;62462;52.530;21.682;2023-02-01T12:36:22;6.00;73.80
74101;DHT22;62462;52.530;21.682;2023-02-01T12:47:57;6.00;73.80
74101;DHT22;62462;52.530;21.682;2023-02-01T12:50:12;6.00;73.70
74101;DHT22;62462;52.530;21.682;2023-02-01T12:52:49;6.10;73.70
74101;DHT22;62462;52.530;21.682;2023-02-01T12:55:35;6.10;73.40
74101;DHT22;62462;52.530;21.682;2023-02-01T12:58:10;6.10;73.70
74101;DHT22;62462;52.530;21.682;2023-02-01T13:00:59;6.10;73.50
74101;DHT22;62462;52.530;21.682;2023-02-01T13:06:10;6.20;73.00
74101;DHT22;62462;52.530;21.682;2023-02-01T13:09:21;6.30;72.60
74101;DHT22;62462;52.530;21.682;2023-02-01T13:11:39;6.30;72.70
74101;DHT22;62462;52.530;21.682;2023-02-01T13:17:10;6.20;73.00
74101;DHT22;62462;52.530;21.682;2023-02-01T13:22:42;6.20;73.70
74101;DHT22;62462;52.530;21.682;2023-02-01T13:25:13;6.30;74.10
74101;DHT22;62462;52.530;21.682;2023-02-01T13:27:39;6.20;73.80
74101;DHT22;62462;52.530;21.682;2023-02-01T13:30:52;6.10;73.60
74101;DHT22;62462;52.530;21.682;2023-02-01T13:36:34;6.10;74.20
74101;DHT22;62462;52.530;21.682;2023-02-01T13:41:59;6.10;74.80
74101;DHT22;62462;52.530;21.682;2023-02-01T13:44:34;6.00;74.90
74101;DHT22;62462;52.530;21.682;2023-02-01T13:47:09;5.90;75.50
74101;DHT22;62462;52.530;21.682;2023-02-01T13:49:38;5.90;75.50
74101;DHT22;62462;52.530;21.682;2023-02-01T13:52:25;5.90;76.00
74101;DHT22;62462;52.530;21.682;2023-02-01T13:57:41;6.00;75.80
74101;DHT22;62462;52.530;21.682;2023-02-01T14:10:56;6.00;75.10
74101;DHT22;62462;52.530;21.682;2023-02-01T14:21:32;6.10;74.90
74101;DHT22;62462;52.530;21.682;2023-02-01T14:34:33;6.20;74.40
74101;DHT22;62462;52.530;21.682;2023-02-01T14:37:05;6.30;74.30
74101;DHT22;62462;52.530;21.682;2023-02-01T14:44:45;6.20;73.40
74101;DHT22;62462;52.530;21.682;2023-02-01T14:52:23;6.10;74.40
74101;DHT22;62462;52.530;21.682;2023-02-01T14:54:55;6.10;74.60
74101;DHT22;62462;52.530;21.682;2023-02-01T14:57:25;6.10;74.80
74101;DHT22;62462;52.530;21.682;2023-02-01T15:02:51;6.20;74.80
74101;DHT22;62462;52.530;21.682;2023-02-01T15:05:36;6.10;74.50
74101;DHT22;62462;52.530;21.682;2023-02-01T15:08:16;6.10;74.60
74101;DHT22;62462;52.530;21.682;2023-02-01T15:10:46;6.10;74.80
74101;DHT22;62462;52.530;21.682;2023-02-01T15:13:20;6.10;74.70
74101;DHT22;62462;52.530;21.682;2023-02-01T15:16:20;6.10;74.60
74101;DHT22;62462;52.530;21.682;2023-02-01T15:18:45;6.10;74.70
74101;DHT22;62462;52.530;21.682;2023-02-01T15:21:24;6.00;75.00
74101;DHT22;62462;52.530;21.682;2023-02-01T15:23:50;6.00;75.20
74101;DHT22;62462;52.530;21.682;2023-02-01T15:26:34;6.00;75.40
74101;DHT22;62462;52.530;21.682;2023-02-01T15:29:00;5.90;75.70
74101;DHT22;62462;52.530;21.682;2023-02-01T15:31:38;5.90;76.00
74101;DHT22;62462;52.530;21.682;2023-02-01T15:34:04;5.90;76.40
74101;DHT22;62462;52.530;21.682;2023-02-01T15:36:30;5.90;76.50
74101;DHT22;62462;52.530;21.682;2023-02-01T15:39:18;5.80;76.80
74101;DHT22;62462;52.530;21.682;2023-02-01T15:42:15;5.70;78.20
74101;DHT22;62462;52.530;21.682;2023-02-01T15:44:44;5.70;77.30
74101;DHT22;62462;52.530;21.682;2023-02-01T15:47:23;5.80;77.40
74101;DHT22;62462;52.530;21.682;2023-02-01T15:49:55;5.80;77.20
74101;DHT22;62462;52.530;21.682;2023-02-01T15:52:25;5.70;77.30
74101;DHT22;62462;52.530;21.682;2023-02-01T15:54:56;5.70;78.20
74101;DHT22;62462;52.530;21.682;2023-02-01T15:57:33;5.60;79.40
74101;DHT22;62462;52.530;21.682;2023-02-01T16:02:56;5.40;81.90
74101;DHT22;62462;52.530;21.682;2023-02-01T16:05:39;5.30;82.50
74101;DHT22;62462;52.530;21.682;2023-02-01T16:08:20;5.40;82.60
74101;DHT22;62462;52.530;21.682;2023-02-01T16:10:48;5.40;82.30
74101;DHT22;62462;52.530;21.682;2023-02-01T16:13:16;5.40;81.40
74101;DHT22;62462;52.530;21.682;2023-02-01T16:15:43;5.50;81.60
74101;DHT22;62462;52.530;21.682;2023-02-01T16:18:10;5.50;81.20
74101;DHT22;62462;52.530;21.682;2023-02-01T16:20:37;5.50;80.80
74101;DHT22;62462;52.530;21.682;2023-02-01T16:23:05;5.50;80.30
74101;DHT22;62462;52.530;21.682;2023-02-01T16:25:31;5.60;80.50
74101;DHT22;62462;52.530;21.682;2023-02-01T16:27:57;5.60;79.80
74101;DHT22;62462;52.530;21.682;2023-02-01T16:30:23;5.70;79.40
74101;DHT22;62462;52.530;21.682;2023-02-01T16:33:00;5.70;79.40
74101;DHT22;62462;52.530;21.682;2023-02-01T16:35:35;5.70;78.50
74101;DHT22;62462;52.530;21.682;2023-02-01T16:38:07;5.70;78.60
74101;DHT22;62462;52.530;21.682;2023-02-01T16:40:41;5.70;78.40
74101;DHT22;62462;52.530;21.682;2023-02-01T16:43:18;5.60;78.50
74101;DHT22;62462;52.530;21.682;2023-02-01T16:45:45;5.70;78.40
74101;DHT22;62462;52.530;21.682;2023-02-01T16:48:27;5.70;78.10
74101;DHT22;62462;52.530;21.682;2023-02-01T16:50:59;5.80;77.70
74101;DHT22;62462;52.530;21.682;2023-02-01T16:53:28;5.80;77.20
74101;DHT22;62462;52.530;21.682;2023-02-01T16:55:55;5.90;77.00
74101;DHT22;62462;52.530;21.682;2023-02-01T16:58:23;5.80;76.70
74101;DHT22;62462;52.530;21.682;2023-02-01T17:00:49;5.80;77.20
74101;DHT22;62462;52.530;21.682;2023-02-01T17:03:19;5.90;77.10
74101;DHT22;62462;52.530;21.682;2023-02-01T17:05:52;6.00;77.00
74101;DHT22;62462;52.530;21.682;2023-02-01T17:08:32;6.00;76.70
74101;DHT22;62462;52.530;21.682;2023-02-01T17:10:58;6.00;76.40
74101;DHT22;62462;52.530;21.682;2023-02-01T17:13:23;6.00;76.10
74101;DHT22;62462;52.530;21.682;2023-02-01T17:16:03;6.10;76.30
74101;DHT22;62462;52.530;21.682;2023-02-01T17:18:32;6.10;76.00
74101;DHT22;62462;52.530;21.682;2023-02-01T17:21:00;6.00;76.10
74101;DHT22;62462;52.530;21.682;2023-02-01T17:23:27;5.80;76.50
74101;DHT22;62462;52.530;21.682;2023-02-01T17:25:53;5.80;77.30
74101;DHT22;62462;52.530;21.682;2023-02-01T17:28:19;5.80;77.20
74101;DHT22;62462;52.530;21.682;2023-02-01T17:30:45;5.80;77.20
74101;DHT22;62462;52.530;21.682;2023-02-01T17:33:28;5.90;77.20
74101;DHT22;62462;52.530;21.682;2023-02-01T17:35:55;6.00;76.90
74101;DHT22;62462;52.530;21.682;2023-02-01T17:38:24;6.10;76.60
74101;DHT22;62462;52.530;21.682;2023-02-01T17:40:50;5.90;76.30
74101;DHT22;62462;52.530;21.682;2023-02-01T17:43:20;5.90;76.70
74101;DHT22;62462;52.530;21.682;2023-02-01T17:45:52;5.90;76.50
74101;DHT22;62462;52.530;21.682;2023-02-01T17:48:20;5.90;76.60
74101;DHT22;62462;52.530;21.682;2023-02-01T17:50:48;5.90;76.50
74101;DHT22;62462;52.530;21.682;2023-02-01T17:53:17;5.80;76.50
74101;DHT22;62462;52.530;21.682;2023-02-01T17:55:45;5.70;77.10
74101;DHT22;62462;52.530;21.682;2023-02-01T17:58:12;5.80;77.00
74101;DHT22;62462;52.530;21.682;2023-02-01T18:00:39;5.80;76.70
74101;DHT22;62462;52.530;21.682;2023-02-01T18:03:05;5.70;77.00
74101;DHT22;62462;52.530;21.682;2023-02-01T18:05:41;5.80;77.00
74101;DHT22;62462;52.530;21.682;2023-02-01T18:08:09;5.80;76.80
74101;DHT22;62462;52.530;21.682;2023-02-01T18:10:35;5.80;76.30
74101;DHT22;62462;52.530;21.682;2023-02-01T18:13:02;5.80;77.30
74101;DHT22;62462;52.530;21.682;2023-02-01T18:15:30;5.80;76.60
74101;DHT22;62462;52.530;21.682;2023-02-01T18:17:56;5.80;76.70
74101;DHT22;62462;52.530;21.682;2023-02-01T18:20:24;5.90;76.50
74101;DHT22;62462;52.530;21.682;2023-02-01T18:22:50;5.80;76.50
74101;DHT22;62462;52.530;21.682;2023-02-01T18:25:20;5.90;76.50
74101;DHT22;62462;52.530;21.682;2023-02-01T18:27:47;5.90;76.40
74101;DHT22;62462;52.530;21.682;2023-02-01T18:30:14;5.90;76.50
74101;DHT22;62462;52.530;21.682;2023-02-01T18:32:41;5.80;76.30
74101;DHT22;62462;52.530;21.682;2023-02-01T18:37:42;5.80;77.00
74101;DHT22;62462;52.530;21.682;2023-02-01T18:40:16;5.80;76.80
74101;DHT22;62462;52.530;21.682;2023-02-01T18:43:01;5.70;77.00
74101;DHT22;62462;52.530;21.682;2023-02-01T18:45:38;5.70;77.50
74101;DHT22;62462;52.530;21.682;2023-02-01T18:48:19;5.70;77.50